createdAt,value
2022-09-23T00:07:31.978Z,13.50
2022-09-23T00:29:15.743Z,12.40
2022-09-23T00:50:59.308Z,12.90
2022-09-23T01:13:03.959Z,13.00
2022-09-23T01:34:55.231Z,15.30
2022-09-23T01:56:43.785Z,15.00
2022-09-23T02:18:30.190Z,16.50
2022-09-23T02:40:23.090Z,13.70
2022-09-23T03:02:21.064Z,15.90
2022-09-23T03:24:07.752Z,13.40
2022-09-23T03:45:56.428Z,15.70
2022-09-23T04:07:40.494Z,16.30
2022-09-23T04:29:24.869Z,17.10
2022-09-23T04:51:10.361Z,14.90
2022-09-23T05:34:41.040Z,18.70
2022-09-23T05:56:25.782Z,15.20
2022-09-23T06:18:08.971Z,13.60
2022-09-23T06:39:54.293Z,13.80
2022-09-23T07:01:40.240Z,13.70
2022-09-23T07:23:23.413Z,10.50
2022-09-23T07:45:09.219Z,10.20
2022-09-23T08:06:54.147Z,7.90
2022-09-23T08:28:37.240Z,3.90
2022-09-23T08:50:22.754Z,3.00
2022-09-23T09:12:15.599Z,2.40
2022-09-23T09:34:05.711Z,2.10
2022-09-23T09:56:04.562Z,1.70
2022-09-23T10:17:51.203Z,1.80
2022-09-23T10:39:52.876Z,1.50
2022-09-23T11:01:42.886Z,1.50
2022-09-23T11:23:46.316Z,1.20
2022-09-23T11:45:34.196Z,1.30
2022-09-23T12:07:22.481Z,1.30
2022-09-23T12:29:07.388Z,1.40
2022-09-23T12:50:53.941Z,1.20
2022-09-23T13:12:41.981Z,1.40
2022-09-23T13:34:30.454Z,1.30
2022-09-23T13:56:15.220Z,1.40
2022-09-23T14:18:04.018Z,1.50
2022-09-23T14:39:54.486Z,1.40
2022-09-23T15:01:40.444Z,1.60
2022-09-23T15:23:44.293Z,1.90
2022-09-23T15:45:31.438Z,1.50
2022-09-23T16:07:16.669Z,1.50
2022-09-23T16:29:00.675Z,1.80
2022-09-23T16:50:44.293Z,2.00
2022-09-23T17:12:33.024Z,2.60
2022-09-23T17:34:18.138Z,3.50
2022-09-23T17:56:04.147Z,4.80
2022-09-23T18:17:47.326Z,5.00
2022-09-23T18:39:30.471Z,6.40
2022-09-23T19:01:14.401Z,7.70
2022-09-23T19:44:40.549Z,9.50
2022-09-23T20:06:24.610Z,12.30
2022-09-23T20:28:07.641Z,12.80
2022-09-23T20:49:50.878Z,13.00
2022-09-23T21:11:34.077Z,13.70
2022-09-23T21:33:17.681Z,13.10
2022-09-23T21:55:00.622Z,15.40
2022-09-23T22:16:43.928Z,15.80
2022-09-23T22:38:27.082Z,14.90
2022-09-23T23:00:12.779Z,14.10
2022-09-23T23:21:55.867Z,16.50
2022-09-23T23:43:39.633Z,14.10
